Time;durP1;ratioP1;P1;durP2;ratioP2;P2;SDS_P1;SDS_P2;PMS_P1;PMS_P2;Temp;Humidity;BMP_temperature;BMP_pressure;BME280_temperature;BME280_humidity;BME280_pressure;Samples;Min_cycle;Max_cycle;Signal;HPM_P1;HPM_P2
2023/08/11 00:01:01;;;;;;;5.53;4.33;;;14.50;99.90;;;;;;464887;255;29073;-79
2023/08/11 00:03:05;;;;;;;5.60;4.47;;;14.40;99.90;;;;;;464906;253;29008;-79
2023/08/11 00:05:04;;;;;;;8.87;4.70;;;14.40;99.90;;;;;;464910;254;28950;-79
2023/08/11 00:07:05;;;;;;;4.80;4.40;;;14.40;99.90;;;;;;464926;254;28972;-79
2023/08/11 00:09:08;;;;;;;6.80;4.50;;;14.40;99.90;;;;;;464899;254;29478;-79
2023/08/11 00:11:08;;;;;;;5.00;4.60;;;14.30;99.90;;;;;;464889;254;29210;-79
2023/08/11 00:13:12;;;;;;;5.77;4.40;;;14.30;99.90;;;;;;464911;254;29388;-79
2023/08/11 00:15:12;;;;;;;6.10;4.50;;;14.30;99.90;;;;;;464095;256;29382;-80
2023/08/11 00:17:11;;;;;;;4.93;4.30;;;14.30;99.90;;;;;;464295;256;29060;-79
2023/08/11 00:19:13;;;;;;;4.93;4.43;;;14.30;99.90;;;;;;464895;254;28670;-79
2023/08/11 00:21:14;;;;;;;6.50;4.10;;;14.30;99.90;;;;;;464895;254;28979;-79
2023/08/11 00:23:15;;;;;;;5.17;4.67;;;14.30;99.90;;;;;;464917;254;28637;-79
2023/08/11 00:25:16;;;;;;;5.50;4.63;;;14.20;99.90;;;;;;464883;254;29013;-79
2023/08/11 00:27:19;;;;;;;5.07;4.53;;;14.00;99.90;;;;;;464895;254;28524;-78
2023/08/11 00:29:19;;;;;;;4.53;4.07;;;14.00;99.90;;;;;;464879;254;28595;-80
2023/08/11 00:31:21;;;;;;;6.87;4.43;;;14.00;99.90;;;;;;464831;255;28966;-79
2023/08/11 00:33:21;;;;;;;4.47;4.07;;;14.00;99.90;;;;;;464825;254;28591;-79
2023/08/11 00:35:23;;;;;;;5.33;4.20;;;14.10;99.90;;;;;;464865;254;29447;-79
2023/08/11 00:37:24;;;;;;;5.37;4.03;;;14.10;99.90;;;;;;464487;256;28969;-79
2023/08/11 00:39:25;;;;;;;5.60;4.40;;;14.10;99.90;;;;;;464078;256;29400;-79
2023/08/11 00:41:26;;;;;;;5.40;4.90;;;14.00;99.90;;;;;;464066;256;28987;-79
2023/08/11 00:43:28;;;;;;;6.60;4.70;;;14.00;99.90;;;;;;464556;254;29045;-80
2023/08/11 00:45:29;;;;;;;7.90;4.63;;;14.00;99.90;;;;;;464865;255;28632;-79
2023/08/11 00:47:30;;;;;;;4.63;3.97;;;14.00;99.90;;;;;;464888;255;28640;-80
2023/08/11 00:49:31;;;;;;;4.87;4.30;;;14.00;99.90;;;;;;464635;254;28505;-79
2023/08/11 00:51:33;;;;;;;6.87;4.00;;;14.00;99.90;;;;;;464873;254;28550;-79
2023/08/11 00:53:34;;;;;;;6.13;4.00;;;14.00;99.90;;;;;;464500;251;28749;-79
2023/08/11 00:55:35;;;;;;;4.33;3.90;;;14.10;99.90;;;;;;464915;254;28489;-79
2023/08/11 00:57:37;;;;;;;4.67;4.27;;;14.10;99.90;;;;;;464884;256;28518;-79
2023/08/11 00:59:38;;;;;;;5.30;3.83;;;14.00;99.90;;;;;;464912;254;29103;-79
2023/08/11 01:01:40;;;;;;;5.83;4.20;;;13.80;99.90;;;;;;464896;254;29368;-79
2023/08/11 01:03:43;;;;;;;4.60;3.70;;;13.80;99.90;;;;;;464143;256;29649;-79
2023/08/11 01:05:43;;;;;;;6.30;4.70;;;13.80;99.90;;;;;;464928;254;28994;-79
2023/08/11 01:07:43;;;;;;;4.73;4.33;;;13.80;99.90;;;;;;464909;254;28987;-79
2023/08/11 01:09:44;;;;;;;8.10;4.20;;;13.80;99.90;;;;;;464824;256;28572;-79
2023/08/11 01:11:45;;;;;;;4.80;4.30;;;13.80;99.90;;;;;;464604;254;28682;-79
2023/08/11 01:13:46;;;;;;;4.50;3.70;;;13.80;99.90;;;;;;464920;254;28399;-79
2023/08/11 01:15:48;;;;;;;4.40;4.00;;;13.80;99.90;;;;;;464939;254;28413;-79
2023/08/11 01:17:50;;;;;;;6.20;4.10;;;13.80;99.90;;;;;;464906;254;28684;-79
2023/08/11 01:19:50;;;;;;;9.00;4.60;;;13.80;99.90;;;;;;464883;254;28922;-79
2023/08/11 01:21:51;;;;;;;5.33;3.90;;;13.80;99.90;;;;;;464915;254;28605;-79
2023/08/11 01:23:53;;;;;;;4.77;4.37;;;13.80;99.90;;;;;;464922;254;28553;-79
2023/08/11 01:25:54;;;;;;;9.70;4.17;;;13.80;99.90;;;;;;464920;254;29122;-78
2023/08/11 01:27:55;;;;;;;9.33;3.87;;;13.80;99.90;;;;;;464916;254;29548;-79
2023/08/11 01:29:56;;;;;;;9.10;4.87;;;13.70;99.90;;;;;;464917;255;29475;-78
2023/08/11 01:31:58;;;;;;;7.90;3.90;;;13.80;99.90;;;;;;464889;254;28626;-79
2023/08/11 01:33:59;;;;;;;5.80;4.30;;;13.80;99.90;;;;;;464932;254;28499;-79
2023/08/11 01:36:00;;;;;;;5.83;4.13;;;13.80;99.90;;;;;;464927;254;28577;-79
2023/08/11 01:38:02;;;;;;;5.23;4.30;;;13.80;99.90;;;;;;464958;255;28549;-79
2023/08/11 01:40:10;;;;;;;4.50;4.10;;;;;;;;;;464886;256;28366;-79
2023/08/11 01:42:08;;;;;;;4.40;4.00;;;13.60;99.90;;;;;;464735;256;27323;-79
2023/08/11 01:44:10;;;;;;;4.33;3.67;;;13.50;99.90;;;;;;464912;254;28384;-79
2023/08/11 01:46:11;;;;;;;5.40;4.20;;;13.50;99.90;;;;;;464931;254;28717;-79
2023/08/11 01:48:12;;;;;;;6.13;4.73;;;13.50;99.90;;;;;;464953;251;29532;-78
2023/08/11 01:50:16;;;;;;;4.30;3.90;;;13.60;99.90;;;;;;464983;254;28887;-79
2023/08/11 01:52:17;;;;;;;4.70;4.07;;;13.60;99.90;;;;;;464920;254;28685;-79
2023/08/11 01:54:19;;;;;;;4.10;3.70;;;13.60;99.90;;;;;;464905;254;28363;-79
2023/08/11 01:56:20;;;;;;;5.63;4.60;;;13.50;99.90;;;;;;464889;254;28330;-79
2023/08/11 01:58:21;;;;;;;5.77;4.00;;;13.40;99.90;;;;;;464928;254;30051;-79
2023/08/11 02:00:22;;;;;;;4.53;4.13;;;13.40;99.90;;;;;;464755;256;29379;-79
2023/08/11 02:02:24;;;;;;;4.60;4.20;;;13.30;99.90;;;;;;464960;254;28437;-79
2023/08/11 02:04:25;;;;;;;5.60;4.13;;;13.40;99.90;;;;;;464944;254;28723;-79
2023/08/11 02:06:26;;;;;;;4.90;4.40;;;13.50;99.90;;;;;;464916;254;28378;-79
2023/08/11 02:08:27;;;;;;;4.20;3.80;;;13.50;99.90;;;;;;464905;254;28524;-79
2023/08/11 02:10:29;;;;;;;8.53;4.23;;;13.50;99.90;;;;;;464749;254;28269;-79
2023/08/11 02:12:30;;;;;;;4.27;3.87;;;13.60;99.90;;;;;;464904;254;28294;-79
2023/08/11 02:14:32;;;;;;;4.13;3.70;;;13.60;99.90;;;;;;464923;254;28398;-79
2023/08/11 02:16:33;;;;;;;4.10;3.73;;;13.60;99.90;;;;;;464881;254;28435;-79
2023/08/11 02:18:34;;;;;;;5.73;4.00;;;13.50;99.90;;;;;;464910;254;28380;-79
2023/08/11 02:20:35;;;;;;;4.70;4.30;;;13.40;99.90;;;;;;464925;254;28460;-79
2023/08/11 02:22:36;;;;;;;9.73;4.33;;;13.40;99.90;;;;;;464269;255;28442;-79
2023/08/11 02:24:38;;;;;;;5.63;3.83;;;13.40;99.90;;;;;;464903;254;28994;-79
2023/08/11 02:26:39;;;;;;;6.40;3.90;;;13.30;99.90;;;;;;464882;254;28939;-79
2023/08/11 02:28:40;;;;;;;5.17;4.00;;;13.30;99.90;;;;;;464904;254;29885;-79
2023/08/11 02:30:41;;;;;;;5.67;5.00;;;13.40;99.90;;;;;;464910;252;28533;-79
2023/08/11 02:32:45;;;;;;;5.53;4.60;;;13.30;99.90;;;;;;464914;254;28351;-79
2023/08/11 02:34:44;;;;;;;4.97;3.90;;;13.20;99.90;;;;;;464904;254;28338;-79
2023/08/11 02:36:45;;;;;;;4.80;3.93;;;13.30;99.90;;;;;;464770;256;28269;-78
2023/08/11 02:38:46;;;;;;;4.43;4.00;;;13.30;99.90;;;;;;464910;254;28485;-79
2023/08/11 02:40:47;;;;;;;6.83;4.17;;;13.40;99.90;;;;;;464886;256;28416;-79
2023/08/11 02:42:49;;;;;;;4.17;3.77;;;13.30;99.90;;;;;;464886;254;28419;-78
2023/08/11 02:44:50;;;;;;;4.20;3.70;;;13.30;99.90;;;;;;464871;254;28339;-79
2023/08/11 02:46:51;;;;;;;4.90;4.40;;;13.20;99.90;;;;;;464910;255;28353;-79
2023/08/11 02:48:52;;;;;;;9.27;5.27;;;13.10;99.90;;;;;;464936;254;28799;-79
2023/08/11 02:50:54;;;;;;;5.73;4.37;;;13.00;99.90;;;;;;464935;254;28936;-79
2023/08/11 02:52:55;;;;;;;5.73;4.40;;;13.00;99.90;;;;;;464901;254;29009;-79
2023/08/11 02:54:56;;;;;;;4.73;4.23;;;13.10;99.90;;;;;;464908;254;28253;-79
2023/08/11 02:56:57;;;;;;;4.37;3.97;;;13.10;99.90;;;;;;464871;254;28314;-79
2023/08/11 02:58:59;;;;;;;6.50;4.00;;;13.10;99.90;;;;;;464892;255;28423;-79
2023/08/11 03:01:00;;;;;;;4.33;3.93;;;13.10;99.90;;;;;;464901;252;28362;-79
2023/08/11 03:03:01;;;;;;;4.43;4.10;;;13.10;99.90;;;;;;464861;256;28379;-79
2023/08/11 03:05:03;;;;;;;4.60;3.60;;;13.10;99.90;;;;;;464877;255;28268;-79
2023/08/11 03:07:05;;;;;;;4.20;3.80;;;13.10;99.90;;;;;;464862;252;28403;-79
2023/08/11 03:09:05;;;;;;;4.80;3.80;;;13.10;99.90;;;;;;464904;254;28288;-79
2023/08/11 03:11:06;;;;;;;5.07;4.60;;;13.00;99.90;;;;;;464924;254;28382;-79
2023/08/11 03:13:08;;;;;;;5.47;4.13;;;13.00;99.90;;;;;;464902;254;28909;-79
2023/08/11 03:15:09;;;;;;;7.07;4.33;;;12.90;99.90;;;;;;464864;254;29871;-79
2023/08/11 03:17:13;;;;;;;7.73;4.97;;;12.90;99.90;;;;;;464863;254;29000;-80
2023/08/11 03:19:11;;;;;;;5.33;4.53;;;12.80;99.90;;;;;;464887;252;29507;-79
2023/08/11 03:21:13;;;;;;;5.00;4.30;;;12.70;99.90;;;;;;464897;251;28145;-79
2023/08/11 03:23:14;;;;;;;6.70;4.57;;;12.70;99.90;;;;;;464916;254;28298;-79
2023/08/11 03:25:15;;;;;;;4.30;3.90;;;12.70;99.90;;;;;;464902;254;28172;-79
2023/08/11 03:27:16;;;;;;;4.93;4.10;;;12.80;99.90;;;;;;464925;254;28949;-79
2023/08/11 03:29:18;;;;;;;4.70;4.00;;;12.90;99.90;;;;;;464914;254;28697;-78
2023/08/11 03:31:19;;;;;;;4.90;4.17;;;13.00;99.90;;;;;;464911;255;28275;-78
2023/08/11 03:33:20;;;;;;;4.40;4.00;;;13.10;99.90;;;;;;464916;254;28407;-80
2023/08/11 03:35:22;;;;;;;8.93;4.03;;;13.10;99.90;;;;;;464923;254;28781;-79
2023/08/11 03:37:23;;;;;;;5.53;3.73;;;13.20;99.90;;;;;;464901;255;28825;-78
2023/08/11 03:39:24;;;;;;;4.07;3.67;;;13.20;99.90;;;;;;464901;255;28887;-79
2023/08/11 03:41:25;;;;;;;4.00;3.60;;;13.30;99.90;;;;;;464865;254;28807;-78
2023/08/11 03:43:26;;;;;;;3.90;3.53;;;13.30;99.90;;;;;;464895;254;29042;-78
2023/08/11 03:45:28;;;;;;;8.60;3.67;;;13.30;99.90;;;;;;464592;254;28312;-79
2023/08/11 03:47:29;;;;;;;4.37;3.97;;;13.20;99.90;;;;;;464849;254;28364;-79
2023/08/11 03:49:31;;;;;;;4.13;3.70;;;13.20;99.90;;;;;;464316;256;28415;-79
2023/08/11 03:51:33;;;;;;;3.90;3.50;;;;;;;;;;464800;256;28273;-80
2023/08/11 03:53:35;;;;;;;4.10;3.73;;;;;;;;;;463322;256;26640;-79
2023/08/11 03:55:36;;;;;;;4.93;3.50;;;13.10;99.90;;;;;;464870;255;26705;-79
2023/08/11 03:57:37;;;;;;;4.23;3.83;;;13.10;99.90;;;;;;464882;252;28771;-79
2023/08/11 03:59:39;;;;;;;4.03;3.63;;;13.10;99.90;;;;;;464742;256;28401;-79
2023/08/11 04:01:40;;;;;;;5.93;4.20;;;13.10;99.90;;;;;;464845;254;28822;-79
2023/08/11 04:03:42;;;;;;;4.30;3.80;;;13.10;99.90;;;;;;464862;254;28992;-79
2023/08/11 04:05:42;;;;;;;5.63;4.53;;;13.00;99.90;;;;;;464735;256;28999;-78
2023/08/11 04:07:45;;;;;;;6.93;5.40;;;;;;;;;;464864;254;28840;-79
2023/08/11 04:09:48;;;;;;;8.83;5.57;;;12.90;99.90;;;;;;464741;256;26517;-79
2023/08/11 04:11:48;;;;;;;6.70;5.20;;;13.00;99.90;;;;;;464879;254;28477;-79
2023/08/11 04:13:49;;;;;;;7.23;4.07;;;13.00;99.90;;;;;;464891;254;28466;-79
2023/08/11 04:15:50;;;;;;;6.00;3.77;;;13.00;99.90;;;;;;464880;251;28983;-79
2023/08/11 04:17:52;;;;;;;4.67;4.27;;;13.00;99.90;;;;;;464865;254;29463;-79
2023/08/11 04:19:53;;;;;;;5.97;4.03;;;13.00;99.90;;;;;;464855;254;28705;-79
2023/08/11 04:21:54;;;;;;;4.40;4.00;;;13.00;99.90;;;;;;464790;256;29619;-80
2023/08/11 04:23:55;;;;;;;4.43;4.03;;;13.00;99.90;;;;;;464874;254;28350;-79
2023/08/11 04:25:56;;;;;;;4.10;3.70;;;12.90;99.90;;;;;;464878;255;28264;-78
2023/08/11 04:27:59;;;;;;;5.90;3.60;;;12.90;99.90;;;;;;464899;254;28324;-79
2023/08/11 04:29:59;;;;;;;4.30;3.90;;;12.90;99.90;;;;;;464880;253;28426;-79
2023/08/11 04:32:04;;;;;;;5.67;3.87;;;12.90;99.90;;;;;;464672;256;28760;-79
2023/08/11 04:34:02;;;;;;;8.07;4.00;;;12.90;99.90;;;;;;464349;255;28317;-79
2023/08/11 04:36:02;;;;;;;5.13;4.40;;;13.00;99.90;;;;;;464880;254;28490;-79
2023/08/11 04:38:04;;;;;;;4.97;3.83;;;12.90;99.90;;;;;;464914;254;28537;-79
2023/08/11 04:40:10;;;;;;;5.10;3.60;;;13.00;99.90;;;;;;464868;254;29912;-78
2023/08/11 04:42:07;;;;;;;4.40;4.00;;;13.00;99.90;;;;;;463433;255;28894;-79
2023/08/11 04:44:08;;;;;;;4.43;4.03;;;13.00;99.90;;;;;;464865;252;28873;-79
2023/08/11 04:46:09;;;;;;;6.40;4.20;;;13.10;99.90;;;;;;464883;252;28301;-79
2023/08/11 04:48:10;;;;;;;6.03;3.70;;;13.10;99.90;;;;;;464006;256;28432;-79
2023/08/11 04:50:15;;;;;;;6.93;4.00;;;13.10;99.90;;;;;;464794;254;28423;-78
2023/08/11 04:52:15;;;;;;;4.43;4.03;;;13.20;99.90;;;;;;464903;255;28423;-79
2023/08/11 04:54:17;;;;;;;4.60;4.20;;;13.20;99.90;;;;;;464854;254;28749;-79
2023/08/11 04:56:18;;;;;;;4.03;3.60;;;13.30;99.90;;;;;;464734;252;28910;-79
2023/08/11 04:58:20;;;;;;;6.43;4.03;;;;;;;;;;464113;256;29001;-79
2023/08/11 05:00:22;;;;;;;5.47;3.67;;;13.20;99.90;;;;;;464911;255;26886;-79
2023/08/11 05:02:23;;;;;;;6.87;3.53;;;13.30;99.90;;;;;;464885;254;28480;-78
2023/08/11 05:04:24;;;;;;;6.70;3.70;;;13.40;99.90;;;;;;464879;254;28648;-78
2023/08/11 05:06:25;;;;;;;5.30;3.20;;;13.40;99.90;;;;;;464901;254;28260;-78
2023/08/11 05:08:27;;;;;;;4.20;3.80;;;13.40;99.90;;;;;;464895;254;29018;-79
2023/08/11 05:10:28;;;;;;;3.57;3.27;;;13.40;99.90;;;;;;464910;254;29494;-79
2023/08/11 05:12:29;;;;;;;4.60;3.40;;;13.40;99.90;;;;;;464895;254;28902;-79
2023/08/11 05:14:30;;;;;;;4.67;4.00;;;13.50;99.90;;;;;;464880;255;28392;-79
2023/08/11 05:16:32;;;;;;;4.67;3.20;;;13.50;99.90;;;;;;464893;254;28368;-79
2023/08/11 05:18:33;;;;;;;3.90;3.50;;;13.50;99.90;;;;;;464861;254;28541;-80
2023/08/11 05:20:34;;;;;;;4.70;3.70;;;13.50;99.90;;;;;;464892;254;28540;-79
2023/08/11 05:22:35;;;;;;;7.20;3.43;;;13.60;99.90;;;;;;464889;255;28466;-79
2023/08/11 05:24:37;;;;;;;4.20;3.77;;;13.60;99.90;;;;;;464889;253;28432;-79
2023/08/11 05:26:38;;;;;;;5.07;3.47;;;13.60;99.90;;;;;;464885;254;28601;-79
2023/08/11 05:28:39;;;;;;;5.03;3.87;;;13.60;99.90;;;;;;464878;254;28651;-79
2023/08/11 05:30:40;;;;;;;9.20;3.90;;;13.60;99.90;;;;;;464899;254;28527;-79
2023/08/11 05:32:42;;;;;;;3.97;3.60;;;13.70;99.90;;;;;;464888;254;28832;-79
2023/08/11 05:34:43;;;;;;;4.23;3.83;;;13.70;99.90;;;;;;464872;254;29107;-79
2023/08/11 05:36:44;;;;;;;5.73;3.53;;;13.80;99.90;;;;;;464884;255;29184;-79
2023/08/11 05:38:45;;;;;;;4.10;3.80;;;13.80;99.90;;;;;;464906;254;29376;-79
2023/08/11 05:40:47;;;;;;;4.30;4.00;;;13.90;99.90;;;;;;464920;252;28528;-79
2023/08/11 05:42:48;;;;;;;6.40;3.40;;;13.90;99.90;;;;;;464910;254;28488;-79
2023/08/11 05:44:49;;;;;;;6.00;4.00;;;13.90;99.90;;;;;;464894;256;28951;-79
2023/08/11 05:46:50;;;;;;;3.90;3.60;;;13.90;99.90;;;;;;464053;256;28416;-79
2023/08/11 05:48:52;;;;;;;6.10;3.90;;;13.90;99.90;;;;;;464914;254;28598;-79
2023/08/11 05:50:53;;;;;;;3.67;3.37;;;13.90;99.90;;;;;;464877;255;28655;-79
2023/08/11 05:52:54;;;;;;;4.57;4.17;;;13.90;99.90;;;;;;464923;251;28591;-79
2023/08/11 05:54:55;;;;;;;3.87;3.50;;;14.00;99.90;;;;;;464891;254;28644;-79
2023/08/11 05:56:57;;;;;;;3.83;3.53;;;14.00;99.90;;;;;;464832;256;28459;-79
2023/08/11 05:58:58;;;;;;;4.40;4.00;;;14.10;99.90;;;;;;464884;255;29457;-79
2023/08/11 06:01:00;;;;;;;7.33;3.73;;;14.20;99.90;;;;;;464894;254;29440;-79
2023/08/11 06:03:00;;;;;;;3.77;3.37;;;14.20;99.90;;;;;;464051;253;29380;-79
2023/08/11 06:05:02;;;;;;;4.13;3.37;;;14.30;99.90;;;;;;464057;256;28954;-79
2023/08/11 06:07:03;;;;;;;4.00;3.60;;;14.40;99.90;;;;;;464679;254;28668;-77
2023/08/11 06:09:04;;;;;;;3.83;3.43;;;14.40;99.90;;;;;;464865;256;28679;-79
2023/08/11 06:11:05;;;;;;;4.10;3.70;;;14.50;99.90;;;;;;464898;254;28944;-78
2023/08/11 06:13:07;;;;;;;3.30;3.00;;;14.60;99.90;;;;;;464897;254;28490;-78
2023/08/11 06:15:08;;;;;;;4.13;3.73;;;14.60;99.90;;;;;;464879;254;28718;-79
2023/08/11 06:17:09;;;;;;;4.23;3.80;;;14.70;99.90;;;;;;464867;254;29002;-79
2023/08/11 06:19:10;;;;;;;3.67;3.33;;;14.80;99.90;;;;;;464855;255;28992;-79
2023/08/11 06:21:12;;;;;;;4.90;3.67;;;14.90;99.90;;;;;;464890;254;29528;-79
2023/08/11 06:23:13;;;;;;;3.77;3.47;;;15.00;99.90;;;;;;464893;254;29464;-78
2023/08/11 06:25:15;;;;;;;4.97;3.80;;;15.10;99.90;;;;;;464908;252;29462;-79
2023/08/11 06:27:15;;;;;;;3.53;3.30;;;15.20;99.90;;;;;;464892;254;28981;-79
2023/08/11 06:29:17;;;;;;;4.07;3.30;;;15.30;99.90;;;;;;464917;254;28923;-79
2023/08/11 06:31:19;;;;;;;3.33;3.00;;;15.40;99.90;;;;;;464912;254;28957;-79
2023/08/11 06:33:20;;;;;;;4.37;3.97;;;15.50;99.90;;;;;;464888;254;28951;-79
2023/08/11 06:35:20;;;;;;;4.23;3.83;;;15.60;99.90;;;;;;464915;254;28888;-79
2023/08/11 06:37:22;;;;;;;3.70;3.40;;;15.70;99.90;;;;;;464919;254;28968;-79
2023/08/11 06:39:23;;;;;;;3.47;3.17;;;15.70;99.90;;;;;;464912;254;28928;-79
2023/08/11 06:41:24;;;;;;;3.63;3.30;;;15.80;99.90;;;;;;464883;254;28988;-79
2023/08/11 06:43:25;;;;;;;3.60;3.30;;;15.90;99.90;;;;;;464929;254;29032;-79
2023/08/11 06:45:27;;;;;;;4.00;3.50;;;16.00;99.90;;;;;;464902;254;29486;-79
2023/08/11 06:47:29;;;;;;;4.07;3.27;;;16.10;99.90;;;;;;464863;254;29460;-79
2023/08/11 06:49:29;;;;;;;4.00;3.60;;;16.20;99.90;;;;;;464874;255;29436;-79
2023/08/11 06:51:30;;;;;;;4.57;4.10;;;16.20;99.90;;;;;;464880;254;28974;-79
2023/08/11 06:53:32;;;;;;;4.43;3.20;;;16.30;99.90;;;;;;464924;252;28937;-79
2023/08/11 06:55:33;;;;;;;3.97;3.57;;;16.40;99.90;;;;;;464930;254;28915;-79
2023/08/11 06:57:34;;;;;;;3.47;3.17;;;16.50;99.90;;;;;;464894;254;29039;-78
2023/08/11 06:59:35;;;;;;;3.90;3.50;;;16.60;99.90;;;;;;464895;254;28920;-78
2023/08/11 07:01:37;;;;;;;4.00;3.37;;;16.70;99.90;;;;;;464868;254;29062;-79
2023/08/11 07:03:38;;;;;;;7.10;3.40;;;16.80;99.90;;;;;;464903;254;29382;-79
2023/08/11 07:05:40;;;;;;;4.87;3.67;;;16.80;99.90;;;;;;464949;254;29067;-79
2023/08/11 07:07:40;;;;;;;4.23;3.83;;;16.90;99.90;;;;;;464210;256;29013;-79
2023/08/11 07:09:42;;;;;;;4.03;3.67;;;17.00;99.90;;;;;;464890;254;29352;-79
2023/08/11 07:11:43;;;;;;;5.03;3.40;;;17.10;99.90;;;;;;464917;254;29510;-79
2023/08/11 07:13:44;;;;;;;5.43;4.10;;;17.30;99.90;;;;;;464940;254;29574;-79
2023/08/11 07:15:45;;;;;;;3.80;3.50;;;17.50;99.90;;;;;;464916;254;28911;-79
2023/08/11 07:17:47;;;;;;;3.63;3.33;;;17.50;99.90;;;;;;464903;254;28968;-79
2023/08/11 07:19:48;;;;;;;4.07;3.77;;;17.70;99.90;;;;;;464881;254;28928;-80
2023/08/11 07:21:49;;;;;;;5.10;3.77;;;18.00;99.90;;;;;;464060;256;29028;-80
2023/08/11 07:23:50;;;;;;;4.00;3.60;;;18.10;99.90;;;;;;464774;254;28961;-80
2023/08/11 07:25:52;;;;;;;3.83;3.37;;;18.10;99.90;;;;;;464913;254;28931;-79
2023/08/11 07:27:53;;;;;;;4.00;3.33;;;18.10;99.90;;;;;;464781;256;29060;-78
2023/08/11 07:29:54;;;;;;;3.67;3.37;;;18.20;99.90;;;;;;464934;254;28900;-79
2023/08/11 07:31:55;;;;;;;3.30;3.00;;;18.30;99.90;;;;;;464919;254;29002;-79
2023/08/11 07:33:57;;;;;;;4.17;3.87;;;18.40;99.90;;;;;;464139;256;29427;-79
2023/08/11 07:35:58;;;;;;;4.10;3.40;;;18.60;99.90;;;;;;464658;254;29402;-79
2023/08/11 07:37:59;;;;;;;3.77;3.47;;;18.60;99.90;;;;;;464030;256;29550;-79
2023/08/11 07:40:00;;;;;;;3.50;3.20;;;18.70;99.90;;;;;;464623;254;30175;-79
2023/08/11 07:42:05;;;;;;;3.73;3.33;;;18.80;99.90;;;;;;464926;254;28923;-79
2023/08/11 07:44:06;;;;;;;2.97;2.77;;;18.80;99.90;;;;;;464871;256;28917;-79
2023/08/11 07:46:07;;;;;;;4.27;3.20;;;18.90;99.90;;;;;;464580;254;29040;-78
2023/08/11 07:48:08;;;;;;;3.67;3.27;;;18.90;99.90;;;;;;464840;254;28921;-79
2023/08/11 07:50:10;;;;;;;3.70;3.30;;;19.00;99.90;;;;;;464906;254;29023;-79
2023/08/11 07:52:11;;;;;;;4.63;3.33;;;19.00;99.90;;;;;;464919;254;29050;-79
2023/08/11 07:54:13;;;;;;;3.20;2.90;;;19.00;99.90;;;;;;464944;252;28917;-79
2023/08/11 07:56:13;;;;;;;3.70;2.80;;;19.00;99.90;;;;;;464888;254;29453;-79
2023/08/11 07:58:15;;;;;;;3.30;3.07;;;19.10;99.90;;;;;;464917;254;29340;-79
2023/08/11 08:00:24;;;;;;;3.20;2.90;;;19.10;99.90;;;;;;464819;251;29541;-79
2023/08/11 08:02:20;;;;;;;3.87;3.10;;;19.30;99.90;;;;;;464804;254;28935;-79
2023/08/11 08:04:21;;;;;;;3.50;3.20;;;19.30;99.90;;;;;;464089;256;28995;-79
2023/08/11 08:06:23;;;;;;;3.20;2.90;;;19.40;99.90;;;;;;464081;256;28917;-79
2023/08/11 08:08:24;;;;;;;4.50;3.10;;;19.60;99.90;;;;;;464658;254;28950;-80
2023/08/11 08:10:25;;;;;;;3.40;3.10;;;19.70;99.90;;;;;;464891;254;29478;-80
2023/08/11 08:12:26;;;;;;;7.47;3.10;;;19.80;99.90;;;;;;464894;252;29542;-79
2023/08/11 08:14:28;;;;;;;3.37;3.07;;;19.90;99.90;;;;;;464896;254;29530;-78
2023/08/11 08:16:29;;;;;;;2.97;2.77;;;20.00;99.90;;;;;;464913;254;28937;-79
2023/08/11 08:18:30;;;;;;;3.37;3.07;;;20.20;99.90;;;;;;464871;255;28911;-79
2023/08/11 08:20:31;;;;;;;3.50;3.00;;;20.20;99.90;;;;;;464828;256;29065;-79
2023/08/11 08:22:33;;;;;;;3.27;2.97;;;20.10;99.90;;;;;;464904;254;28951;-79
2023/08/11 08:24:34;;;;;;;3.50;2.70;;;20.20;99.90;;;;;;464890;254;28970;-79
2023/08/11 08:26:38;;;;;;;3.07;2.80;;;20.30;99.90;;;;;;464920;254;28924;-79
2023/08/11 08:28:39;;;;;;;2.90;2.70;;;20.30;99.90;;;;;;464887;254;28955;-79
2023/08/11 08:30:41;;;;;;;3.30;3.00;;;20.40;99.90;;;;;;464890;254;29001;-79
2023/08/11 08:32:42;;;;;;;2.93;2.73;;;20.50;99.90;;;;;;464904;252;29025;-79
2023/08/11 08:34:43;;;;;;;2.80;2.60;;;20.50;99.90;;;;;;464726;254;28966;-79
2023/08/11 08:36:44;;;;;;;3.17;2.87;;;20.50;99.90;;;;;;464908;254;29050;-79
2023/08/11 08:38:46;;;;;;;3.10;2.53;;;20.60;99.90;;;;;;464857;254;28926;-80
2023/08/11 08:40:47;;;;;;;2.73;2.50;;;20.70;99.90;;;;;;464032;256;29041;-80
2023/08/11 08:42:48;;;;;;;3.13;2.93;;;20.80;99.90;;;;;;464628;256;28979;-80
2023/08/11 08:44:49;;;;;;;2.70;2.50;;;20.80;99.90;;;;;;464856;254;29457;-80
2023/08/11 08:46:50;;;;;;;3.27;2.50;;;20.70;99.90;;;;;;464895;253;29461;-79
2023/08/11 08:48:52;;;;;;;3.70;3.00;;;20.90;99.90;;;;;;464023;256;29409;-79
2023/08/11 08:50:53;;;;;;;2.60;2.40;;;21.00;99.90;;;;;;464590;254;28991;-78
2023/08/11 08:52:54;;;;;;;3.33;2.67;;;21.00;99.90;;;;;;464885;254;28956;-79
2023/08/11 08:54:56;;;;;;;3.30;3.00;;;20.90;99.90;;;;;;464867;254;28917;-79
2023/08/11 08:56:57;;;;;;;3.13;2.83;;;20.90;99.90;;;;;;464880;254;28979;-80
2023/08/11 08:58:58;;;;;;;2.70;2.50;;;21.00;99.90;;;;;;464863;255;28913;-79
2023/08/11 09:00:59;;;;;;;3.17;2.97;;;21.10;99.90;;;;;;464846;254;28977;-79
2023/08/11 09:03:00;;;;;;;5.20;2.97;;;21.10;99.90;;;;;;464623;254;29369;-80
2023/08/11 09:05:02;;;;;;;2.80;2.60;;;21.20;99.90;;;;;;464867;254;29029;-79
2023/08/11 09:07:03;;;;;;;2.80;2.50;;;21.20;99.90;;;;;;464869;254;29464;-79
2023/08/11 09:09:05;;;;;;;5.60;2.57;;;21.30;99.90;;;;;;464865;254;29334;-79
2023/08/11 09:11:06;;;;;;;2.90;2.60;;;21.40;99.90;;;;;;464877;254;29543;-80
2023/08/11 09:13:07;;;;;;;3.83;2.90;;;21.40;99.90;;;;;;464892;254;28983;-79
2023/08/11 09:15:08;;;;;;;3.40;3.10;;;21.50;99.90;;;;;;464855;254;29002;-79
2023/08/11 09:17:09;;;;;;;3.03;2.80;;;21.60;99.90;;;;;;464860;254;29061;-79
2023/08/11 09:19:10;;;;;;;3.90;3.50;;;21.80;99.90;;;;;;464850;255;28911;-80
2023/08/11 09:21:12;;;;;;;3.90;3.20;;;21.80;99.90;;;;;;464859;254;29350;-79
2023/08/11 09:23:13;;;;;;;3.20;2.90;;;21.80;99.90;;;;;;464871;255;28967;-79
2023/08/11 09:25:14;;;;;;;5.00;2.93;;;21.70;99.90;;;;;;464858;254;29024;-80
2023/08/11 09:27:15;;;;;;;5.77;3.20;;;21.70;99.90;;;;;;464867;254;28973;-79
2023/08/11 09:29:17;;;;;;;3.63;3.20;;;21.70;99.90;;;;;;464818;254;28911;-80
2023/08/11 09:31:18;;;;;;;3.30;3.00;;;22.00;99.90;;;;;;464858;254;29523;-80
2023/08/11 09:33:19;;;;;;;3.30;3.00;;;22.10;99.90;;;;;;464895;254;29413;-79
2023/08/11 09:35:20;;;;;;;2.93;2.53;;;22.10;99.90;;;;;;464878;254;29358;-79
2023/08/11 09:37:22;;;;;;;3.10;2.90;;;22.10;99.90;;;;;;464898;255;29467;-80
2023/08/11 09:39:23;;;;;;;3.17;2.87;;;22.10;99.90;;;;;;464897;254;28911;-79
2023/08/11 09:41:24;;;;;;;4.33;3.00;;;22.00;99.90;;;;;;464891;254;28978;-80
2023/08/11 09:43:25;;;;;;;3.30;3.00;;;22.00;99.90;;;;;;464885;254;28964;-80
2023/08/11 09:45:27;;;;;;;3.37;3.07;;;22.00;99.90;;;;;;464859;254;28916;-80
2023/08/11 09:47:28;;;;;;;3.37;2.90;;;22.30;99.90;;;;;;464858;254;29047;-79
2023/08/11 09:49:29;;;;;;;3.37;3.07;;;22.50;99.90;;;;;;464840;255;28982;-80
2023/08/11 09:51:30;;;;;;;3.17;2.90;;;22.30;99.90;;;;;;464869;254;28963;-79
2023/08/11 09:53:33;;;;;;;3.90;3.13;;;22.50;99.90;;;;;;464878;253;29034;-80
2023/08/11 09:55:33;;;;;;;3.20;2.90;;;22.50;99.90;;;;;;464842;254;29366;-80
2023/08/11 09:57:35;;;;;;;2.90;2.70;;;22.60;99.90;;;;;;464827;254;29463;-79
2023/08/11 09:59:35;;;;;;;3.13;2.37;;;22.60;99.90;;;;;;464852;254;29366;-80
2023/08/11 10:01:37;;;;;;;3.50;2.83;;;22.40;99.90;;;;;;464839;253;29388;-80
2023/08/11 10:03:38;;;;;;;9.47;3.33;;;22.70;99.90;;;;;;464883;254;28937;-79
2023/08/11 10:05:39;;;;;;;3.07;2.77;;;22.70;99.90;;;;;;464858;255;28988;-80
2023/08/11 10:07:40;;;;;;;2.90;2.67;;;22.60;99.90;;;;;;464851;254;29040;-79
2023/08/11 10:09:42;;;;;;;3.27;2.97;;;22.60;99.90;;;;;;464861;255;28959;-80
2023/08/11 10:11:43;;;;;;;3.60;3.30;;;22.50;99.90;;;;;;464862;254;28894;-79
2023/08/11 10:13:44;;;;;;;3.50;2.97;;;22.90;99.90;;;;;;464849;252;29040;-80
2023/08/11 10:15:45;;;;;;;2.90;2.70;;;23.10;99.90;;;;;;464879;254;28910;-79
2023/08/11 10:17:47;;;;;;;4.30;2.83;;;23.10;99.90;;;;;;464849;254;29050;-79
2023/08/11 10:19:48;;;;;;;3.37;3.07;;;23.10;99.90;;;;;;464876;254;29038;-79
2023/08/11 10:21:49;;;;;;;5.10;3.03;;;23.20;99.90;;;;;;464865;254;29490;-80
2023/08/11 10:23:50;;;;;;;3.03;2.63;;;23.00;99.90;;;;;;464830;254;29437;-79
2023/08/11 10:25:52;;;;;;;3.00;2.80;;;23.10;99.90;;;;;;464831;254;30182;-80
2023/08/11 10:27:53;;;;;;;3.40;3.10;;;23.30;99.90;;;;;;464855;254;29018;-79
2023/08/11 10:29:54;;;;;;;3.33;3.03;;;23.20;99.90;;;;;;464876;253;28945;-79
2023/08/11 10:31:55;;;;;;;3.00;2.70;;;23.20;99.90;;;;;;464886;254;28921;-79